Williamsburg, Michigan
Current Conditions -  °F | °C
As of 10:53 AM on Friday 24 Oct 2014 (Local Time) from KTVC Reporting Station
Haze Haze  
Wind Chill: 52°   Ceiling: 600
Heat Index: 52°   Visibility: 5mi
Dew Point: 48°   Wind: 7mph
Humidity: 86%   Direction: 230°SW
Pressure: 30.01"   Gusts: NA
Location:  44.77°N, 85.4°W
Report Text: KTVC 241453Z 23006KT 5SM BR BKN006 OVC021 11/09 A3001 RMK AO2 SLP166 60000 T01110089 53004
Loading
Personal Weather Stations






























Interactive Weather Map New forecast layout! Learn more

10-Day Weather Forecast

Advertisements
Track Severe Weather on mobile